Time;durP1;ratioP1;P1;durP2;ratioP2;P2;SDS_P1;SDS_P2;PMS_P1;PMS_P2;Temp;Humidity;BMP_temperature;BMP_pressure;BME280_temperature;BME280_humidity;BME280_pressure;Samples;Min_cycle;Max_cycle;Signal;HPM_P1;HPM_P2
2022/06/08 00:02:18;;;;;;;5.88;0.82;;;;;;;;;;5039563;28;20577;-82
2022/06/08 00:04:45;;;;;;;1.33;0.80;;;;;;;;;;5036664;28;20057;-82
2022/06/08 00:07:12;;;;;;;4.82;0.75;;;;;;;;;;5036810;28;20045;-82
2022/06/08 00:09:40;;;;;;;1.45;0.90;;;;;;;;;;5036971;28;20135;-82
2022/06/08 00:12:08;;;;;;;1.63;1.10;;;;;;;;;;5035701;28;20493;-82
2022/06/08 00:14:35;;;;;;;1.80;0.80;;;;;;;;;;5036747;28;20171;-83
2022/06/08 00:17:02;;;;;;;1.42;0.90;;;;;;;;;;5036781;28;20059;-82
2022/06/08 00:19:29;;;;;;;0.70;0.70;;;;;;;;;;5036722;28;20056;-82
2022/06/08 00:21:57;;;;;;;0.70;0.68;;;;;;;;;;5036737;28;20345;-82
2022/06/08 00:24:24;;;;;;;3.28;0.80;;;;;;;;;;5054084;28;20056;-82
2022/06/08 00:26:51;;;;;;;1.20;1.10;;;;;;;;;;5036421;28;20088;-83
2022/06/08 00:29:19;;;;;;;3.30;0.98;;;;;;;;;;5054226;28;20087;-83
2022/06/08 00:31:46;;;;;;;1.27;0.80;;;;;;;;;;5054141;28;20397;-83
2022/06/08 00:34:13;;;;;;;2.97;0.60;;;;;;;;;;5036620;28;20099;-82
2022/06/08 00:36:40;;;;;;;1.58;0.80;;;;;;;;;;5054078;28;20102;-83
2022/06/08 00:39:07;;;;;;;0.75;0.40;;;;;;;;;;5053969;28;20053;-82
2022/06/08 00:41:52;;;;;;;1.02;0.70;;;;;;;;;;5054211;28;20091;-82
2022/06/08 00:44:39;;;;;;;0.50;0.50;;;;;;;;;;5036400;28;20065;-83
2022/06/08 00:47:08;;;;;;;0.60;0.60;;;;;;;;;;5036218;28;20077;-82
2022/06/08 00:49:39;;;;;;;0.65;0.50;;;;;;;;;;5054072;28;20588;-83
2022/06/08 00:52:06;;;;;;;0.82;0.52;;;;;;;;;;5036608;28;20140;-83
2022/06/08 00:54:39;;;;;;;1.50;0.70;;;;;;;;;;5038535;28;20063;-83
2022/06/08 00:57:26;;;;;;;2.80;0.60;;;;;;;;;;5039839;28;20057;-82
2022/06/08 01:00:03;;;;;;;2.33;0.77;;;;;;;;;;5036023;28;20057;-83
2022/06/08 01:02:31;;;;;;;0.50;0.50;;;;;;;;;;5053912;28;20132;-83
2022/06/08 01:05:17;;;;;;;1.95;0.60;;;;;;;;;;5053486;28;20481;-82
2022/06/08 01:07:44;;;;;;;1.65;0.70;;;;;;;;;;5053779;28;20454;-82
2022/06/08 01:10:15;;;;;;;1.60;0.60;;;;;;;;;;5053808;28;20458;-82
2022/06/08 01:12:43;;;;;;;0.50;0.50;;;;;;;;;;5035953;28;20053;-83
2022/06/08 01:15:18;;;;;;;0.47;0.47;;;;;;;;;;5053776;28;20547;-82
2022/06/08 01:17:45;;;;;;;1.35;0.70;;;;;;;;;;5035837;28;20053;-83
2022/06/08 01:20:12;;;;;;;1.40;0.77;;;;;;;;;;5035852;28;20136;-83
2022/06/08 01:22:40;;;;;;;1.13;0.60;;;;;;;;;;5035777;28;20143;-82
2022/06/08 01:25:08;;;;;;;1.25;0.75;;;;;;;;;;5052830;28;20083;-83
2022/06/08 01:27:45;;;;;;;1.42;0.80;;;;;;;;;;5053542;28;20134;-83
2022/06/08 01:30:18;;;;;;;1.35;0.63;;;;;;;;;;5035640;28;20059;-83
2022/06/08 01:32:57;;;;;;;1.27;0.60;;;;;;;;;;5035777;28;20080;-83
2022/06/08 01:35:42;;;;;;;0.40;0.40;;;;;;;;;;5053077;28;20592;-82
2022/06/08 01:38:28;;;;;;;2.05;0.80;;;;;;;;;;5053028;28;20051;-83
2022/06/08 01:41:01;;;;;;;2.90;0.60;;;;;;;;;;5052919;28;20049;-83
2022/06/08 01:43:38;;;;;;;2.42;0.60;;;;;;;;;;5053295;28;20489;-83
2022/06/08 01:46:11;;;;;;;3.42;0.70;;;;;;;;;;5052806;28;20053;-83
2022/06/08 01:48:47;;;;;;;2.28;0.70;;;;;;;;;;5035352;28;20514;-83
2022/06/08 01:51:14;;;;;;;0.68;0.50;;;;;;;;;;5035251;28;20132;-83
2022/06/08 01:54:05;;;;;;;4.60;0.90;;;;;;;;;;5053137;28;20084;-83
2022/06/08 01:56:53;;;;;;;4.78;0.70;;;;;;;;;;4990939;28;20055;-83
2022/06/08 01:59:43;;;;;;;8.00;0.70;;;;;;;;;;5035055;28;20140;-83
2022/06/08 02:02:15;;;;;;;5.78;0.60;;;;;;;;;;5052746;28;20592;-85
2022/06/08 02:04:59;;;;;;;6.32;1.23;;;;;;;;;;5034995;28;20045;-85
2022/06/08 02:07:31;;;;;;;3.47;0.50;;;;;;;;;;5052667;28;20049;-85
2022/06/08 02:10:01;;;;;;;0.50;0.40;;;;;;;;;;5034814;28;20087;-85
2022/06/08 02:12:31;;;;;;;0.38;0.38;;;;;;;;;;5037424;28;20063;-82
2022/06/08 02:15:16;;;;;;;0.65;0.63;;;;;;;;;;5055146;28;20094;-85
2022/06/08 02:17:46;;;;;;;0.50;0.50;;;;;;;;;;5034806;28;20048;-85
2022/06/08 02:20:51;;;;;;;0.43;0.40;;;;;;;;;;5052371;28;20141;-85
2022/06/08 02:23:21;;;;;;;1.55;0.30;;;;;;;;;;4936414;29;20051;-85
2022/06/08 02:25:54;;;;;;;0.80;0.40;;;;;;;;;;4952096;29;20411;-82
2022/06/08 02:28:25;;;;;;;0.60;0.50;;;;;;;;;;4989919;28;20063;-85
2022/06/08 02:30:54;;;;;;;3.03;0.68;;;;;;;;;;5034631;28;20056;-85
2022/06/08 02:36:16;;;;;;;0.50;0.50;;;;;;;;;;5053876;28;20145;-84
2022/06/08 02:38:46;;;;;;;0.60;0.60;;;;;;;;;;5038649;28;20489;-84
2022/06/08 02:41:13;;;;;;;1.33;0.60;;;;;;;;;;5038371;28;20135;-84
2022/06/08 02:43:43;;;;;;;3.03;0.80;;;;;;;;;;5038657;28;20140;-84
2022/06/08 02:46:11;;;;;;;0.80;0.80;;;;;;;;;;5056002;28;20073;-85
2022/06/08 02:48:38;;;;;;;2.20;0.70;;;;;;;;;;5038479;28;20041;-85
2022/06/08 02:51:05;;;;;;;2.03;0.80;;;;;;;;;;5038563;28;20084;-84
2022/06/08 02:53:32;;;;;;;0.80;0.68;;;;;;;;;;5038307;28;20102;-84
2022/06/08 02:55:59;;;;;;;3.20;0.77;;;;;;;;;;5055756;28;20187;-85
2022/06/08 02:58:37;;;;;;;1.65;0.70;;;;;;;;;;5056077;28;20045;-84
2022/06/08 03:01:09;;;;;;;2.38;0.70;;;;;;;;;;5056097;28;20052;-85
2022/06/08 03:03:42;;;;;;;1.10;1.10;;;;;;;;;;5038211;28;20051;-84
2022/06/08 03:06:15;;;;;;;3.00;2.80;;;;;;;;;;5037806;28;20045;-84
2022/06/08 03:08:47;;;;;;;1.50;1.40;;;;;;;;;;5038081;28;20061;-85
2022/06/08 03:11:14;;;;;;;12.05;7.30;;;;;;;;;;5038321;28;20474;-85
2022/06/08 03:13:45;;;;;;;17.45;11.52;;;;;;;;;;5056026;28;20156;-84
2022/06/08 03:16:29;;;;;;;8.77;6.90;;;;;;;;;;5055449;28;20041;-85
2022/06/08 03:18:57;;;;;;;2.03;1.92;;;;;;;;;;5037676;28;20092;-85
2022/06/08 03:21:25;;;;;;;2.88;1.20;;;;;;;;;;5037975;28;20079;-85
2022/06/08 03:23:54;;;;;;;2.00;1.75;;;;;;;;;;5038040;28;20493;-85
2022/06/08 03:26:22;;;;;;;1.42;1.20;;;;;;;;;;5055215;28;20585;-85
2022/06/08 03:28:49;;;;;;;2.63;1.00;;;;;;;;;;5055491;28;20084;-84
2022/06/08 03:31:17;;;;;;;0.85;0.80;;;;;;;;;;5058627;28;20148;-84
2022/06/08 03:33:44;;;;;;;2.13;1.10;;;;;;;;;;5038043;28;20052;-85
2022/06/08 03:36:13;;;;;;;1.02;0.80;;;;;;;;;;5037464;28;20386;-84
2022/06/08 03:38:42;;;;;;;1.00;1.00;;;;;;;;;;5037612;28;20045;-84
2022/06/08 03:41:10;;;;;;;2.03;0.80;;;;;;;;;;5037709;28;20585;-84
2022/06/08 03:43:38;;;;;;;0.82;0.75;;;;;;;;;;5054961;28;20132;-85
2022/06/08 03:46:06;;;;;;;2.50;1.00;;;;;;;;;;5054477;28;20126;-85
2022/06/08 03:48:33;;;;;;;1.42;1.10;;;;;;;;;;5037505;28;20099;-81
2022/06/08 03:51:00;;;;;;;0.90;0.90;;;;;;;;;;5055279;28;20060;-83
2022/06/08 03:53:29;;;;;;;0.82;0.82;;;;;;;;;;5055111;28;20084;-85
2022/06/08 03:55:57;;;;;;;1.38;0.90;;;;;;;;;;5037200;28;20409;-84
2022/06/08 03:58:25;;;;;;;1.00;1.00;;;;;;;;;;5037065;28;20122;-82
2022/06/08 04:00:53;;;;;;;4.25;0.95;;;;;;;;;;5036782;28;20132;-85
2022/06/08 04:03:20;;;;;;;1.23;1.13;;;;;;;;;;5037160;28;20057;-83
2022/06/08 04:05:47;;;;;;;0.70;0.70;;;;;;;;;;5036996;28;20048;-82
2022/06/08 04:08:15;;;;;;;0.75;0.70;;;;;;;;;;5054771;28;20087;-83
2022/06/08 04:10:42;;;;;;;0.70;0.70;;;;;;;;;;5036877;28;20148;-82
2022/06/08 04:13:09;;;;;;;2.03;1.25;;;;;;;;;;5036998;28;20060;-82
2022/06/08 04:15:42;;;;;;;1.63;0.90;;;;;;;;;;5054452;28;20056;-83
2022/06/08 04:18:09;;;;;;;;;;;;;;;;;;5054970;28;20526;-82
2022/06/08 04:20:37;;;;;;;1.23;1.13;;;;;;;;;;5037340;28;19921;-83
2022/06/08 04:23:04;;;;;;;1.95;1.40;;;;;;;;;;5036935;28;20140;-84
2022/06/08 04:25:31;;;;;;;6.32;1.42;;;;;;;;;;5036934;28;20132;-87
2022/06/08 04:27:58;;;;;;;4.70;1.17;;;;;;;;;;5036881;28;20052;-85
2022/06/08 04:30:26;;;;;;;1.80;1.70;;;;;;;;;;5036956;28;20059;-85
2022/06/08 04:32:53;;;;;;;5.65;1.48;;;;;;;;;;5037007;28;20048;-85
2022/06/08 04:35:20;;;;;;;1.33;1.23;;;;;;;;;;5036824;28;20048;-84
2022/06/08 04:37:47;;;;;;;2.50;1.85;;;;;;;;;;5036668;28;20131;-83
2022/06/08 04:40:15;;;;;;;2.53;1.10;;;;;;;;;;5036822;28;20536;-85
2022/06/08 04:42:43;;;;;;;1.73;1.40;;;;;;;;;;5036675;28;20508;-82
2022/06/08 04:45:11;;;;;;;2.83;1.58;;;;;;;;;;5036399;28;20045;-84
2022/06/08 04:47:38;;;;;;;3.60;1.60;;;;;;;;;;5038340;28;20053;-82
2022/06/08 04:50:07;;;;;;;1.83;1.25;;;;;;;;;;5054643;28;20532;-82
2022/06/08 04:52:34;;;;;;;4.35;1.50;;;;;;;;;;5036704;28;20136;-82
2022/06/08 04:55:02;;;;;;;1.80;1.20;;;;;;;;;;5053835;28;20405;-83
2022/06/08 04:57:33;;;;;;;2.95;1.50;;;;;;;;;;5036560;28;20052;-82
2022/06/08 05:00:00;;;;;;;6.18;1.23;;;;;;;;;;5035729;28;20135;-83
2022/06/08 05:02:44;;;;;;;1.40;1.25;;;;;;;;;;5036360;28;20520;-84
2022/06/08 05:05:12;;;;;;;2.38;1.40;;;;;;;;;;5036175;28;20049;-82
2022/06/08 05:07:39;;;;;;;3.08;1.13;;;;;;;;;;5036393;28;20049;-82
2022/06/08 05:10:08;;;;;;;3.03;1.30;;;;;;;;;;5053444;28;20049;-82
2022/06/08 05:12:36;;;;;;;1.25;1.10;;;;;;;;;;5036245;28;20076;-84
2022/06/08 05:15:07;;;;;;;1.23;1.00;;;;;;;;;;5035858;28;20076;-82
2022/06/08 05:17:35;;;;;;;2.50;1.30;;;;;;;;;;5035876;28;20135;-82
2022/06/08 05:20:03;;;;;;;2.30;1.27;;;;;;;;;;5036087;28;20045;-82
2022/06/08 05:22:30;;;;;;;3.33;1.50;;;;;;;;;;5035944;28;20508;-82
2022/06/08 05:24:57;;;;;;;3.67;1.10;;;;;;;;;;5053510;28;20059;-82
2022/06/08 05:27:24;;;;;;;5.30;1.33;;;;;;;;;;5035427;28;20148;-83
2022/06/08 05:29:51;;;;;;;3.45;1.10;;;;;;;;;;5035794;28;20049;-82
2022/06/08 05:32:18;;;;;;;4.97;1.10;;;;;;;;;;5053483;28;20076;-83
2022/06/08 05:34:46;;;;;;;4.20;0.73;;;;;;;;;;5035480;28;20481;-82
2022/06/08 05:37:13;;;;;;;0.93;0.93;;;;;;;;;;5053400;28;20155;-82
2022/06/08 05:39:41;;;;;;;1.52;0.80;;;;;;;;;;5035486;28;20140;-82
2022/06/08 05:42:09;;;;;;;1.02;1.02;;;;;;;;;;5052845;28;20232;-82
2022/06/08 05:44:36;;;;;;;1.85;1.10;;;;;;;;;;5035357;28;20132;-82
2022/06/08 05:47:03;;;;;;;2.33;1.00;;;;;;;;;;5052987;28;20558;-84
2022/06/08 05:49:34;;;;;;;4.10;1.20;;;;;;;;;;5053057;28;20055;-82
2022/06/08 05:52:02;;;;;;;2.17;0.77;;;;;;;;;;5052930;28;20055;-83
2022/06/08 05:54:30;;;;;;;2.35;1.10;;;;;;;;;;5035213;28;20041;-82
2022/06/08 05:56:57;;;;;;;2.45;0.90;;;;;;;;;;5035156;28;20063;-82
2022/06/08 05:59:24;;;;;;;2.17;0.80;;;;;;;;;;5034996;28;20409;-82
2022/06/08 06:01:52;;;;;;;12.10;1.60;;;;;;;;;;5035188;28;20055;-82
2022/06/08 06:04:19;;;;;;;2.47;1.30;;;;;;;;;;5035887;28;20072;-83
2022/06/08 06:06:47;;;;;;;1.10;1.00;;;;;;;;;;5036324;28;20044;-82
2022/06/08 06:09:15;;;;;;;1.00;0.75;;;;;;;;;;5052769;28;20463;-82
2022/06/08 06:11:42;;;;;;;2.63;0.50;;;;;;;;;;5052713;28;20050;-82
2022/06/08 06:14:09;;;;;;;2.63;0.55;;;;;;;;;;5052560;28;20055;-82
2022/06/08 06:16:37;;;;;;;4.47;0.65;;;;;;;;;;5035383;28;20087;-82
2022/06/08 06:19:04;;;;;;;0.60;0.55;;;;;;;;;;5052723;28;20052;-83
2022/06/08 06:21:32;;;;;;;0.60;0.60;;;;;;;;;;5052364;28;20135;-82
2022/06/08 06:24:00;;;;;;;0.47;0.47;;;;;;;;;;5034527;28;20045;-82
2022/06/08 06:26:29;;;;;;;1.48;0.60;;;;;;;;;;5052569;28;20487;-82
2022/06/08 06:28:57;;;;;;;0.65;0.65;;;;;;;;;;5034752;28;20136;-82
2022/06/08 06:31:29;;;;;;;1.42;0.65;;;;;;;;;;5052527;28;20049;-82
2022/06/08 06:33:58;;;;;;;0.85;0.65;;;;;;;;;;5052602;28;20045;-82
2022/06/08 06:36:26;;;;;;;0.88;0.70;;;;;;;;;;5034701;28;20059;-82
2022/06/08 06:38:53;;;;;;;1.60;0.70;;;;;;;;;;5034477;28;20473;-82
2022/06/08 06:41:21;;;;;;;0.75;0.75;;;;;;;;;;5052253;28;20136;-82
2022/06/08 06:43:49;;;;;;;2.00;0.90;;;;;;;;;;5033261;28;20048;-82
2022/06/08 06:46:16;;;;;;;2.90;0.73;;;;;;;;;;5034629;28;20489;-83
2022/06/08 06:48:43;;;;;;;2.40;0.80;;;;;;;;;;5034846;28;20053;-81
2022/06/08 06:51:12;;;;;;;7.00;0.80;;;;;;;;;;5034719;28;20076;-82
2022/06/08 06:53:39;;;;;;;1.65;0.70;;;;;;;;;;5052477;28;20060;-83
2022/06/08 06:56:08;;;;;;;5.95;1.42;;;;;;;;;;5052075;28;20144;-83
2022/06/08 06:58:36;;;;;;;1.48;0.80;;;;;;;;;;5034476;28;20088;-83
2022/06/08 07:01:03;;;;;;;1.05;0.60;;;;;;;;;;5052116;28;20045;-82
2022/06/08 07:03:31;;;;;;;1.50;0.80;;;;;;;;;;5034471;28;20049;-82
2022/06/08 07:05:58;;;;;;;2.10;0.70;;;;;;;;;;5034438;28;20489;-83
2022/06/08 07:08:26;;;;;;;6.65;1.13;;;;;;;;;;5034913;28;20095;-83
2022/06/08 07:13:41;;;;;;;2.17;0.68;;;;;;;;;;5052144;28;20144;-82
2022/06/08 07:16:08;;;;;;;2.97;0.82;;;;;;;;;;5034750;28;20049;-82
2022/06/08 07:18:35;;;;;;;1.45;0.50;;;;;;;;;;5034767;28;20053;-86
2022/06/08 07:21:02;;;;;;;0.73;0.63;;;;;;;;;;5034976;28;20072;-85
2022/06/08 07:23:30;;;;;;;1.83;0.47;;;;;;;;;;5048035;28;20072;-82
2022/06/08 07:25:57;;;;;;;3.05;0.75;;;;;;;;;;5037627;28;20416;-81
2022/06/08 07:28:24;;;;;;;2.08;0.50;;;;;;;;;;5055563;28;20132;-82
2022/06/08 07:30:52;;;;;;;1.15;0.43;;;;;;;;;;5037946;28;20068;-82
2022/06/08 07:33:19;;;;;;;2.65;0.75;;;;;;;;;;5055838;28;20102;-83
2022/06/08 07:35:47;;;;;;;0.63;0.50;;;;;;;;;;5037847;28;20106;-82
2022/06/08 07:38:20;;;;;;;2.13;0.70;;;;;;;;;;5038589;28;20047;-83
2022/06/08 07:40:47;;;;;;;0.95;0.65;;;;;;;;;;5055464;28;20179;-83
2022/06/08 07:43:15;;;;;;;6.20;0.93;;;;;;;;;;5038012;28;20068;-84
2022/06/08 07:45:43;;;;;;;1.95;0.65;;;;;;;;;;5037946;28;20459;-83
2022/06/08 07:50:56;;;;;;;2.78;0.60;;;;;;;;;;5055500;28;20144;-82
2022/06/08 07:53:23;;;;;;;2.35;0.60;;;;;;;;;;5037699;28;20494;-82
2022/06/08 07:55:50;;;;;;;1.85;0.50;;;;;;;;;;5037610;28;20065;-82
2022/06/08 07:58:17;;;;;;;1.83;0.50;;;;;;;;;;5037625;28;20136;-82
2022/06/08 08:00:47;;;;;;;3.67;0.50;;;;;;;;;;5037503;28;20059;-84
2022/06/08 08:03:18;;;;;;;3.25;0.50;;;;;;;;;;5037496;28;20152;-84
2022/06/08 08:05:46;;;;;;;3.53;0.70;;;;;;;;;;5037563;28;20167;-85
2022/06/08 08:08:14;;;;;;;1.08;0.50;;;;;;;;;;5037865;28;20053;-84
2022/06/08 08:10:41;;;;;;;1.52;0.63;;;;;;;;;;5037666;28;20445;-84
2022/06/08 08:13:08;;;;;;;1.27;0.50;;;;;;;;;;5055170;28;20152;-82
2022/06/08 08:15:36;;;;;;;2.28;0.80;;;;;;;;;;5054612;28;20056;-83
2022/06/08 08:18:03;;;;;;;2.95;0.68;;;;;;;;;;5054983;28;20056;-85
2022/06/08 08:20:31;;;;;;;3.05;0.80;;;;;;;;;;5037317;28;20087;-83
2022/06/08 08:22:59;;;;;;;7.28;0.98;;;;;;;;;;5037253;28;20068;-84
2022/06/08 08:25:27;;;;;;;2.17;0.75;;;;;;;;;;5037228;28;20057;-85
2022/06/08 08:27:55;;;;;;;9.32;0.98;;;;;;;;;;5054366;28;20044;-82
2022/06/08 08:30:25;;;;;;;1.33;0.60;;;;;;;;;;5036998;28;20075;-82
2022/06/08 08:32:52;;;;;;;4.60;0.70;;;;;;;;;;5035823;28;20132;-83
2022/06/08 08:35:21;;;;;;;4.65;1.15;;;;;;;;;;5054238;28;20124;-83
2022/06/08 08:37:48;;;;;;;2.42;0.82;;;;;;;;;;5037184;28;20053;-87
2022/06/08 08:40:38;;;;;;;1.02;0.40;;;;;;;;;;5040921;28;20476;-84
2022/06/08 08:43:08;;;;;;;1.15;0.47;;;;;;;;;;5054326;28;20061;-82
2022/06/08 08:45:43;;;;;;;6.80;0.63;;;;;;;;;;5054065;28;20212;-83
2022/06/08 08:48:15;;;;;;;2.20;0.45;;;;;;;;;;5054062;28;20044;-84
2022/06/08 08:50:48;;;;;;;1.02;0.60;;;;;;;;;;5036917;28;20076;-82
2022/06/08 08:53:33;;;;;;;3.72;0.40;;;;;;;;;;5036603;28;20365;-83
2022/06/08 08:56:03;;;;;;;3.80;0.63;;;;;;;;;;5036420;28;20136;-82
2022/06/08 08:58:33;;;;;;;2.60;0.80;;;;;;;;;;5054264;28;20056;-85
2022/06/08 09:01:09;;;;;;;1.67;0.47;;;;;;;;;;5036696;28;20055;-82
2022/06/08 09:03:42;;;;;;;0.70;0.35;;;;;;;;;;5053772;28;20049;-83
2022/06/08 09:06:09;;;;;;;1.70;0.50;;;;;;;;;;5053613;28;20056;-81
2022/06/08 09:08:36;;;;;;;1.80;0.60;;;;;;;;;;5053498;28;20140;-86
2022/06/08 09:11:09;;;;;;;3.97;1.17;;;;;;;;;;5036116;28;20135;-81
2022/06/08 09:13:43;;;;;;;7.68;0.90;;;;;;;;;;5054254;28;20073;-84
2022/06/08 09:16:24;;;;;;;4.50;0.50;;;;;;;;;;5053560;28;20048;-82
2022/06/08 09:18:51;;;;;;;3.92;0.55;;;;;;;;;;5053523;28;20095;-83
2022/06/08 09:21:24;;;;;;;9.52;1.48;;;;;;;;;;5035865;28;20172;-83
2022/06/08 09:23:53;;;;;;;13.25;1.40;;;;;;;;;;5035978;28;20053;-83
2022/06/08 09:26:26;;;;;;;7.85;1.00;;;;;;;;;;5053557;28;20045;-82
2022/06/08 09:29:00;;;;;;;2.17;0.63;;;;;;;;;;5052963;28;20080;-83
2022/06/08 09:31:31;;;;;;;2.88;0.63;;;;;;;;;;5035770;28;20048;-83
2022/06/08 09:34:11;;;;;;;3.33;0.40;;;;;;;;;;5035865;28;20053;-82
2022/06/08 09:36:38;;;;;;;3.45;0.98;;;;;;;;;;5035580;28;20131;-83
2022/06/08 09:39:05;;;;;;;0.32;0.32;;;;;;;;;;5035149;28;20053;-82
2022/06/08 09:41:38;;;;;;;2.83;0.50;;;;;;;;;;5035424;28;20103;-82
2022/06/08 09:44:24;;;;;;;2.38;0.75;;;;;;;;;;5052605;28;20049;-81
2022/06/08 09:53:01;;;;;;;1.80;0.63;;;;;;;;;;5053082;28;20401;-82
2022/06/08 09:55:45;;;;;;;5.38;0.75;;;;;;;;;;5052771;28;20053;-82
2022/06/08 09:58:19;;;;;;;2.72;0.63;;;;;;;;;;5044084;28;20113;-81
2022/06/08 10:01:03;;;;;;;1.17;0.70;;;;;;;;;;5052801;28;20515;-83
2022/06/08 10:03:46;;;;;;;1.65;0.70;;;;;;;;;;5052855;28;20048;-82
2022/06/08 10:06:21;;;;;;;5.55;0.80;;;;;;;;;;5035094;28;20139;-83
2022/06/08 10:09:03;;;;;;;1.30;0.80;;;;;;;;;;5052427;28;20499;-82
2022/06/08 10:11:39;;;;;;;3.13;0.70;;;;;;;;;;5052953;28;20080;-83
2022/06/08 10:14:17;;;;;;;0.95;0.60;;;;;;;;;;5035039;28;20131;-82
2022/06/08 10:16:51;;;;;;;2.72;0.77;;;;;;;;;;5052642;28;20056;-84
2022/06/08 10:19:34;;;;;;;1.55;0.70;;;;;;;;;;5034986;28;20045;-82
2022/06/08 10:22:03;;;;;;;3.75;0.95;;;;;;;;;;5034892;28;20061;-82
2022/06/08 10:24:49;;;;;;;0.88;0.70;;;;;;;;;;5035102;28;20049;-81
2022/06/08 10:27:20;;;;;;;6.13;1.30;;;;;;;;;;5034565;28;20088;-83
2022/06/08 10:29:51;;;;;;;5.25;1.10;;;;;;;;;;5052466;28;20557;-82
2022/06/08 10:32:31;;;;;;;4.70;0.75;;;;;;;;;;5034922;28;20073;-85
2022/06/08 10:35:00;;;;;;;4.47;0.80;;;;;;;;;;5035138;28;20057;-84
2022/06/08 10:37:35;;;;;;;1.27;0.60;;;;;;;;;;5052286;28;20052;-84
2022/06/08 10:40:07;;;;;;;2.00;0.40;;;;;;;;;;5034551;28;20557;-82
2022/06/08 10:42:40;;;;;;;1.00;0.50;;;;;;;;;;5052621;28;20063;-83
2022/06/08 10:45:27;;;;;;;3.22;0.63;;;;;;;;;;5034621;28;20481;-85
2022/06/08 10:47:58;;;;;;;5.10;0.75;;;;;;;;;;5034604;28;20053;-83
2022/06/08 10:50:31;;;;;;;0.65;0.43;;;;;;;;;;5052161;28;20119;-84
2022/06/08 10:55:46;;;;;;;1.13;0.47;;;;;;;;;;5052016;28;20123;-84
2022/06/08 10:58:15;;;;;;;2.95;0.70;;;;;;;;;;5038129;28;20409;-83
2022/06/08 11:00:58;;;;;;;2.75;0.40;;;;;;;;;;5055850;28;20049;-82
2022/06/08 11:03:47;;;;;;;0.50;0.30;;;;;;;;;;5055957;28;20208;-83
2022/06/08 11:06:34;;;;;;;2.53;0.50;;;;;;;;;;5038441;28;20049;-82
2022/06/08 11:09:03;;;;;;;2.58;0.60;;;;;;;;;;5037613;28;20079;-82
2022/06/08 11:11:38;;;;;;;1.48;0.55;;;;;;;;;;5055898;28;20069;-82
2022/06/08 11:14:24;;;;;;;3.10;0.60;;;;;;;;;;5055753;28;20056;-81
2022/06/08 11:16:52;;;;;;;2.30;0.52;;;;;;;;;;5041278;28;20053;-82
2022/06/08 11:19:20;;;;;;;3.08;0.30;;;;;;;;;;5038256;28;20057;-84
2022/06/08 11:21:57;;;;;;;2.75;0.68;;;;;;;;;;5038180;28;20136;-82
2022/06/08 11:24:30;;;;;;;3.35;0.60;;;;;;;;;;5055727;28;20428;-81
2022/06/08 11:27:09;;;;;;;1.13;0.60;;;;;;;;;;5055052;28;20045;-81
2022/06/08 11:29:55;;;;;;;2.33;0.63;;;;;;;;;;5037932;28;20049;-82
2022/06/08 11:32:25;;;;;;;1.38;0.70;;;;;;;;;;5055471;28;20533;-82
2022/06/08 11:35:16;;;;;;;1.88;0.40;;;;;;;;;;5055237;28;20057;-83
2022/06/08 11:38:07;;;;;;;1.40;0.60;;;;;;;;;;4992840;28;20478;-90
2022/06/08 11:40:35;;;;;;;1.60;0.55;;;;;;;;;;5037569;28;20044;-82
2022/06/08 11:43:15;;;;;;;1.60;0.63;;;;;;;;;;5055321;28;20059;-82
2022/06/08 11:45:50;;;;;;;1.83;0.68;;;;;;;;;;5037471;28;20052;-84
2022/06/08 11:48:22;;;;;;;5.07;0.73;;;;;;;;;;5037178;28;20091;-84
2022/06/08 11:50:51;;;;;;;5.30;0.80;;;;;;;;;;5037222;28;20082;-84
2022/06/08 11:53:20;;;;;;;2.40;0.60;;;;;;;;;;5037216;28;20114;-83
2022/06/08 11:55:56;;;;;;;7.03;0.70;;;;;;;;;;5036812;28;20040;-82
2022/06/08 11:58:27;;;;;;;2.38;0.60;;;;;;;;;;5054839;28;20144;-84
2022/06/08 12:01:00;;;;;;;5.18;0.50;;;;;;;;;;5013962;28;20096;-82
2022/06/08 12:03:38;;;;;;;3.90;0.60;;;;;;;;;;5015134;28;20077;-82
2022/06/08 12:06:08;;;;;;;3.50;0.70;;;;;;;;;;5013692;28;20050;-83
2022/06/08 12:08:42;;;;;;;3.05;0.70;;;;;;;;;;5013233;28;20053;-82
2022/06/08 12:11:19;;;;;;;5.72;0.65;;;;;;;;;;5014888;28;20137;-82
2022/06/08 12:14:20;;;;;;;2.22;0.60;;;;;;;;;;5014083;28;20391;-82
2022/06/08 12:16:59;;;;;;;8.07;0.85;;;;;;;;;;5002171;28;20123;-84
2022/06/08 12:19:31;;;;;;;4.13;0.47;;;;;;;;;;5014833;28;20506;-85
2022/06/08 12:22:09;;;;;;;1.10;0.60;;;;;;;;;;5015059;28;20050;-83
2022/06/08 12:24:36;;;;;;;5.15;0.50;;;;;;;;;;5013543;28;20054;-82
2022/06/08 12:27:14;;;;;;;0.82;0.50;;;;;;;;;;5013681;28;20054;-83
2022/06/08 12:29:52;;;;;;;2.60;0.50;;;;;;;;;;5014608;28;20510;-82
2022/06/08 12:32:21;;;;;;;1.35;0.30;;;;;;;;;;5014020;28;20128;-83
2022/06/08 12:35:09;;;;;;;3.75;0.68;;;;;;;;;;5016472;28;20088;-81
2022/06/08 12:37:45;;;;;;;3.00;0.80;;;;;;;;;;5014030;28;20062;-82
2022/06/08 12:40:16;;;;;;;1.98;0.55;;;;;;;;;;5013515;28;20380;-81
2022/06/08 12:42:47;;;;;;;1.80;0.50;;;;;;;;;;5014388;28;20156;-82
2022/06/08 12:45:34;;;;;;;1.88;0.60;;;;;;;;;;5013186;28;20244;-82
2022/06/08 12:48:20;;;;;;;7.22;0.63;;;;;;;;;;5014399;28;20058;-85
2022/06/08 12:50:47;;;;;;;2.03;0.60;;;;;;;;;;5012952;28;20489;-81
2022/06/08 12:53:16;;;;;;;1.35;0.60;;;;;;;;;;5014513;28;20054;-84
2022/06/08 12:55:43;;;;;;;4.78;0.60;;;;;;;;;;5013091;28;20057;-81
2022/06/08 12:58:11;;;;;;;6.22;1.05;;;;;;;;;;5014438;28;20050;-81
2022/06/08 13:00:39;;;;;;;5.43;0.60;;;;;;;;;;5048937;28;20568;-82
2022/06/08 13:03:26;;;;;;;2.08;0.50;;;;;;;;;;5053837;28;20521;-82
2022/06/08 13:05:54;;;;;;;2.58;0.60;;;;;;;;;;5053529;28;20053;-82
2022/06/08 13:08:24;;;;;;;4.45;0.57;;;;;;;;;;5035822;28;20053;-81
2022/06/08 13:10:52;;;;;;;1.15;0.70;;;;;;;;;;5053671;28;20049;-81
2022/06/08 13:13:23;;;;;;;1.98;0.60;;;;;;;;;;5053816;28;20053;-82
2022/06/08 13:15:51;;;;;;;4.82;0.90;;;;;;;;;;5053279;28;20045;-82
2022/06/08 13:18:25;;;;;;;2.47;0.60;;;;;;;;;;5053430;28;20045;-82
2022/06/08 13:20:53;;;;;;;1.45;0.75;;;;;;;;;;5035037;28;20045;-82
2022/06/08 13:23:21;;;;;;;2.40;0.45;;;;;;;;;;5035936;28;20076;-81
2022/06/08 13:25:49;;;;;;;4.75;0.50;;;;;;;;;;5035516;28;20512;-82
2022/06/08 13:28:18;;;;;;;20.50;2.13;;;;;;;;;;5053292;28;20076;-83
2022/06/08 13:30:47;;;;;;;4.18;0.65;;;;;;;;;;5053042;28;20482;-81
2022/06/08 13:36:06;;;;;;;1.55;0.55;;;;;;;;;;5053090;28;20041;-82
2022/06/08 13:38:34;;;;;;;3.33;0.52;;;;;;;;;;5035691;28;20044;-83
2022/06/08 13:41:01;;;;;;;9.32;1.63;;;;;;;;;;5035422;28;20139;-82
2022/06/08 13:43:28;;;;;;;1.48;0.68;;;;;;;;;;5035322;28;20465;-81
2022/06/08 13:45:55;;;;;;;4.28;0.70;;;;;;;;;;5052797;28;20052;-82
2022/06/08 13:48:23;;;;;;;2.55;0.50;;;;;;;;;;5052874;28;20049;-82
2022/06/08 13:50:51;;;;;;;3.83;0.90;;;;;;;;;;5035210;28;20123;-81
2022/06/08 13:53:21;;;;;;;4.13;0.68;;;;;;;;;;5052831;28;20040;-81
2022/06/08 13:55:49;;;;;;;3.67;0.90;;;;;;;;;;5034879;28;20080;-81
2022/06/08 13:58:18;;;;;;;3.13;1.10;;;;;;;;;;5052756;28;20081;-81
2022/06/08 14:00:47;;;;;;;0.85;0.50;;;;;;;;;;5052707;28;20087;-81
2022/06/08 14:03:17;;;;;;;3.42;0.70;;;;;;;;;;5035126;28;20045;-81
2022/06/08 14:14:06;;;;;;;3.80;0.50;;;;;;;;;;5052469;28;20266;-82
2022/06/08 14:16:36;;;;;;;2.83;0.50;;;;;;;;;;5034770;28;20059;-82
2022/06/08 14:19:14;;;;;;;5.40;0.70;;;;;;;;;;5034661;28;20044;-82
2022/06/08 14:21:42;;;;;;;2.08;0.40;;;;;;;;;;5052425;28;20049;-81
2022/06/08 14:24:18;;;;;;;1.42;0.40;;;;;;;;;;5052478;28;20092;-82
2022/06/08 14:26:45;;;;;;;4.60;0.55;;;;;;;;;;5052272;28;20092;-84
2022/06/08 14:29:14;;;;;;;5.75;0.57;;;;;;;;;;5052206;28;20140;-82
2022/06/08 14:31:43;;;;;;;1.17;0.50;;;;;;;;;;5033814;28;20448;-82
2022/06/08 14:34:23;;;;;;;4.00;0.47;;;;;;;;;;5034750;28;20053;-83
2022/06/08 14:36:51;;;;;;;1.23;0.32;;;;;;;;;;5034486;28;20047;-82
2022/06/08 14:39:25;;;;;;;2.22;0.60;;;;;;;;;;5052334;28;20049;-82
2022/06/08 14:41:52;;;;;;;1.00;0.40;;;;;;;;;;5052065;28;20576;-81
2022/06/08 14:44:20;;;;;;;2.90;1.08;;;;;;;;;;5052256;28;20055;-81
2022/06/08 14:46:55;;;;;;;2.80;0.55;;;;;;;;;;5034481;28;20501;-82
2022/06/08 14:49:27;;;;;;;1.42;0.47;;;;;;;;;;5034646;28;20255;-82
2022/06/08 14:51:55;;;;;;;3.70;0.30;;;;;;;;;;5034292;28;20517;-84
2022/06/08 14:54:24;;;;;;;1.02;0.30;;;;;;;;;;5034777;28;20069;-80
2022/06/08 14:57:04;;;;;;;0.88;0.45;;;;;;;;;;5034644;28;20133;-82
2022/06/08 14:59:32;;;;;;;1.90;0.50;;;;;;;;;;5034458;28;20136;-83
2022/06/08 15:02:04;;;;;;;2.53;0.47;;;;;;;;;;5034238;28;20059;-83
2022/06/08 15:04:31;;;;;;;9.52;0.68;;;;;;;;;;5034645;28;20136;-85
2022/06/08 15:06:58;;;;;;;1.98;0.57;;;;;;;;;;5052036;28;20084;-84
2022/06/08 15:09:25;;;;;;;1.45;0.38;;;;;;;;;;5052025;28;20488;-83
2022/06/08 15:11:59;;;;;;;2.22;0.40;;;;;;;;;;5052282;28;20075;-82
2022/06/08 15:14:33;;;;;;;1.17;0.60;;;;;;;;;;5051932;28;20049;-82
2022/06/08 15:17:01;;;;;;;2.08;0.52;;;;;;;;;;5034194;28;20459;-81
2022/06/08 15:19:33;;;;;;;2.05;0.55;;;;;;;;;;5033546;28;20088;-81
2022/06/08 15:22:03;;;;;;;2.40;0.50;;;;;;;;;;5034709;28;20049;-82
2022/06/08 15:24:31;;;;;;;1.55;0.47;;;;;;;;;;5051651;28;20131;-82
2022/06/08 15:27:00;;;;;;;1.75;0.30;;;;;;;;;;5033933;28;20132;-82
2022/06/08 15:29:29;;;;;;;5.15;0.52;;;;;;;;;;5033919;28;20519;-82
2022/06/08 15:31:56;;;;;;;3.38;0.50;;;;;;;;;;5051523;28;20499;-82
2022/06/08 15:34:25;;;;;;;3.63;0.40;;;;;;;;;;5034011;28;20063;-82
2022/06/08 15:36:53;;;;;;;1.08;0.40;;;;;;;;;;5051706;28;20041;-82